sensor_id;sensor_type;location;lat;lon;timestamp;P1;durP1;ratioP1;P2;durP2;ratioP2
38089;SDS011;23904;52.322;10.232;2023-07-16T00:01:29;6.20;;;4.18;;
38089;SDS011;23904;52.322;10.232;2023-07-16T00:03:54;4.20;;;3.30;;
38089;SDS011;23904;52.322;10.232;2023-07-16T00:06:20;4.45;;;3.88;;
38089;SDS011;23904;52.322;10.232;2023-07-16T00:08:45;5.70;;;3.47;;
38089;SDS011;23904;52.322;10.232;2023-07-16T00:11:11;4.75;;;3.75;;
38089;SDS011;23904;52.322;10.232;2023-07-16T00:13:36;4.78;;;3.35;;
38089;SDS011;23904;52.322;10.232;2023-07-16T00:16:02;4.55;;;3.50;;
38089;SDS011;23904;52.322;10.232;2023-07-16T00:18:28;5.43;;;4.03;;
38089;SDS011;23904;52.322;10.232;2023-07-16T00:20:54;5.80;;;3.60;;
38089;SDS011;23904;52.322;10.232;2023-07-16T00:23:20;5.00;;;3.90;;
38089;SDS011;23904;52.322;10.232;2023-07-16T00:25:45;6.82;;;3.83;;
38089;SDS011;23904;52.322;10.232;2023-07-16T00:28:11;5.32;;;4.28;;
38089;SDS011;23904;52.322;10.232;2023-07-16T00:30:37;5.20;;;3.55;;
38089;SDS011;23904;52.322;10.232;2023-07-16T00:33:02;5.03;;;3.90;;
38089;SDS011;23904;52.322;10.232;2023-07-16T00:35:28;5.55;;;3.83;;
38089;SDS011;23904;52.322;10.232;2023-07-16T00:37:53;6.07;;;3.65;;
38089;SDS011;23904;52.322;10.232;2023-07-16T00:40:19;5.80;;;3.47;;
38089;SDS011;23904;52.322;10.232;2023-07-16T00:42:44;7.45;;;4.22;;
38089;SDS011;23904;52.322;10.232;2023-07-16T00:45:11;6.13;;;3.60;;
38089;SDS011;23904;52.322;10.232;2023-07-16T00:47:39;8.25;;;3.08;;
38089;SDS011;23904;52.322;10.232;2023-07-16T00:50:07;5.50;;;3.15;;
38089;SDS011;23904;52.322;10.232;2023-07-16T00:52:35;6.10;;;3.30;;
38089;SDS011;23904;52.322;10.232;2023-07-16T00:55:00;7.03;;;3.60;;
38089;SDS011;23904;52.322;10.232;2023-07-16T00:57:26;5.53;;;3.28;;
38089;SDS011;23904;52.322;10.232;2023-07-16T00:59:52;5.38;;;2.72;;
38089;SDS011;23904;52.322;10.232;2023-07-16T01:02:18;4.30;;;2.60;;
38089;SDS011;23904;52.322;10.232;2023-07-16T01:04:43;4.50;;;2.75;;
38089;SDS011;23904;52.322;10.232;2023-07-16T01:07:10;4.00;;;2.90;;
38089;SDS011;23904;52.322;10.232;2023-07-16T01:09:37;3.75;;;2.40;;
38089;SDS011;23904;52.322;10.232;2023-07-16T01:12:08;5.45;;;3.08;;
38089;SDS011;23904;52.322;10.232;2023-07-16T01:14:35;5.72;;;3.00;;
38089;SDS011;23904;52.322;10.232;2023-07-16T01:17:04;6.53;;;3.10;;
38089;SDS011;23904;52.322;10.232;2023-07-16T01:19:31;6.63;;;3.17;;
38089;SDS011;23904;52.322;10.232;2023-07-16T01:25:22;4.30;;;2.80;;
38089;SDS011;23904;52.322;10.232;2023-07-16T01:30:46;6.07;;;2.38;;
38089;SDS011;23904;52.322;10.232;2023-07-16T01:33:13;4.88;;;3.00;;
38089;SDS011;23904;52.322;10.232;2023-07-16T01:35:41;6.28;;;3.13;;
38089;SDS011;23904;52.322;10.232;2023-07-16T01:38:09;7.03;;;3.33;;
38089;SDS011;23904;52.322;10.232;2023-07-16T01:40:36;5.82;;;3.28;;
38089;SDS011;23904;52.322;10.232;2023-07-16T01:43:01;6.45;;;3.00;;
38089;SDS011;23904;52.322;10.232;2023-07-16T01:45:27;5.03;;;3.08;;
38089;SDS011;23904;52.322;10.232;2023-07-16T01:48:00;7.30;;;2.90;;
38089;SDS011;23904;52.322;10.232;2023-07-16T01:50:42;4.55;;;3.05;;
38089;SDS011;23904;52.322;10.232;2023-07-16T01:53:08;6.65;;;3.55;;
38089;SDS011;23904;52.322;10.232;2023-07-16T01:55:33;9.63;;;4.22;;
38089;SDS011;23904;52.322;10.232;2023-07-16T01:57:59;10.05;;;4.32;;
38089;SDS011;23904;52.322;10.232;2023-07-16T02:00:24;9.15;;;4.18;;
38089;SDS011;23904;52.322;10.232;2023-07-16T02:02:50;8.40;;;3.60;;
38089;SDS011;23904;52.322;10.232;2023-07-16T02:05:16;9.50;;;4.18;;
38089;SDS011;23904;52.322;10.232;2023-07-16T02:07:41;6.60;;;3.78;;
38089;SDS011;23904;52.322;10.232;2023-07-16T02:10:07;7.88;;;3.83;;
38089;SDS011;23904;52.322;10.232;2023-07-16T02:12:33;6.95;;;3.53;;
38089;SDS011;23904;52.322;10.232;2023-07-16T02:14:58;21.17;;;6.18;;
38089;SDS011;23904;52.322;10.232;2023-07-16T02:17:24;13.23;;;4.38;;
38089;SDS011;23904;52.322;10.232;2023-07-16T02:19:50;7.75;;;2.97;;
38089;SDS011;23904;52.322;10.232;2023-07-16T02:22:15;4.20;;;2.42;;
38089;SDS011;23904;52.322;10.232;2023-07-16T02:24:41;5.20;;;2.65;;
38089;SDS011;23904;52.322;10.232;2023-07-16T02:27:07;4.82;;;2.65;;
38089;SDS011;23904;52.322;10.232;2023-07-16T02:29:32;7.10;;;3.17;;
38089;SDS011;23904;52.322;10.232;2023-07-16T02:31:58;5.90;;;2.72;;
38089;SDS011;23904;52.322;10.232;2023-07-16T02:34:24;7.40;;;3.45;;
38089;SDS011;23904;52.322;10.232;2023-07-16T02:36:49;5.22;;;3.03;;
38089;SDS011;23904;52.322;10.232;2023-07-16T02:39:15;5.88;;;3.35;;
38089;SDS011;23904;52.322;10.232;2023-07-16T02:41:40;6.20;;;2.90;;
38089;SDS011;23904;52.322;10.232;2023-07-16T02:44:06;6.70;;;3.53;;
38089;SDS011;23904;52.322;10.232;2023-07-16T02:46:33;6.50;;;3.05;;
38089;SDS011;23904;52.322;10.232;2023-07-16T02:48:59;4.00;;;2.65;;
38089;SDS011;23904;52.322;10.232;2023-07-16T02:51:25;6.55;;;3.38;;
38089;SDS011;23904;52.322;10.232;2023-07-16T02:53:51;7.82;;;3.10;;
38089;SDS011;23904;52.322;10.232;2023-07-16T02:56:16;7.15;;;2.88;;
38089;SDS011;23904;52.322;10.232;2023-07-16T02:58:42;9.70;;;3.40;;
38089;SDS011;23904;52.322;10.232;2023-07-16T03:01:08;6.03;;;2.60;;
38089;SDS011;23904;52.322;10.232;2023-07-16T03:03:33;6.05;;;2.78;;
38089;SDS011;23904;52.322;10.232;2023-07-16T03:05:59;5.75;;;3.00;;
38089;SDS011;23904;52.322;10.232;2023-07-16T03:08:25;6.78;;;3.60;;
38089;SDS011;23904;52.322;10.232;2023-07-16T03:10:54;8.00;;;3.08;;
38089;SDS011;23904;52.322;10.232;2023-07-16T03:13:21;4.95;;;2.60;;
38089;SDS011;23904;52.322;10.232;2023-07-16T03:15:47;5.07;;;2.90;;
38089;SDS011;23904;52.322;10.232;2023-07-16T03:18:12;4.80;;;2.83;;
38089;SDS011;23904;52.322;10.232;2023-07-16T03:20:38;6.22;;;3.30;;
38089;SDS011;23904;52.322;10.232;2023-07-16T03:23:04;8.95;;;3.17;;
38089;SDS011;23904;52.322;10.232;2023-07-16T03:25:30;7.68;;;3.28;;
38089;SDS011;23904;52.322;10.232;2023-07-16T03:27:56;8.98;;;3.70;;
38089;SDS011;23904;52.322;10.232;2023-07-16T03:30:21;6.85;;;3.42;;
38089;SDS011;23904;52.322;10.232;2023-07-16T03:32:47;6.00;;;3.33;;
38089;SDS011;23904;52.322;10.232;2023-07-16T03:35:12;6.10;;;3.20;;
38089;SDS011;23904;52.322;10.232;2023-07-16T03:37:38;6.32;;;3.05;;
38089;SDS011;23904;52.322;10.232;2023-07-16T03:40:13;7.95;;;2.92;;
38089;SDS011;23904;52.322;10.232;2023-07-16T03:42:42;6.30;;;3.47;;
38089;SDS011;23904;52.322;10.232;2023-07-16T03:45:08;12.75;;;3.88;;
38089;SDS011;23904;52.322;10.232;2023-07-16T03:47:35;6.03;;;2.85;;
38089;SDS011;23904;52.322;10.232;2023-07-16T03:50:00;7.75;;;3.03;;
38089;SDS011;23904;52.322;10.232;2023-07-16T03:52:27;6.65;;;3.15;;
38089;SDS011;23904;52.322;10.232;2023-07-16T03:54:53;7.43;;;4.10;;
38089;SDS011;23904;52.322;10.232;2023-07-16T03:57:20;10.48;;;4.00;;
38089;SDS011;23904;52.322;10.232;2023-07-16T03:59:45;6.75;;;3.17;;
38089;SDS011;23904;52.322;10.232;2023-07-16T04:02:11;10.35;;;3.80;;
38089;SDS011;23904;52.322;10.232;2023-07-16T04:04:37;7.75;;;3.42;;
38089;SDS011;23904;52.322;10.232;2023-07-16T04:07:02;4.97;;;3.00;;
38089;SDS011;23904;52.322;10.232;2023-07-16T04:09:28;7.47;;;3.55;;
38089;SDS011;23904;52.322;10.232;2023-07-16T04:11:54;6.15;;;3.35;;
38089;SDS011;23904;52.322;10.232;2023-07-16T04:14:19;7.47;;;3.42;;
38089;SDS011;23904;52.322;10.232;2023-07-16T04:16:45;7.07;;;3.40;;
38089;SDS011;23904;52.322;10.232;2023-07-16T04:19:10;8.85;;;3.65;;
38089;SDS011;23904;52.322;10.232;2023-07-16T04:21:36;4.85;;;3.20;;
38089;SDS011;23904;52.322;10.232;2023-07-16T04:24:02;8.77;;;3.70;;
38089;SDS011;23904;52.322;10.232;2023-07-16T04:26:28;6.30;;;3.08;;
38089;SDS011;23904;52.322;10.232;2023-07-16T04:28:54;6.50;;;3.33;;
38089;SDS011;23904;52.322;10.232;2023-07-16T04:31:19;5.90;;;3.05;;
38089;SDS011;23904;52.322;10.232;2023-07-16T04:33:45;5.65;;;3.47;;
38089;SDS011;23904;52.322;10.232;2023-07-16T04:36:10;4.78;;;3.17;;
38089;SDS011;23904;52.322;10.232;2023-07-16T04:38:36;6.60;;;2.90;;
38089;SDS011;23904;52.322;10.232;2023-07-16T04:41:02;6.13;;;2.88;;
38089;SDS011;23904;52.322;10.232;2023-07-16T04:43:27;6.78;;;3.10;;
38089;SDS011;23904;52.322;10.232;2023-07-16T04:45:53;6.43;;;3.03;;
38089;SDS011;23904;52.322;10.232;2023-07-16T04:48:18;7.00;;;2.70;;
38089;SDS011;23904;52.322;10.232;2023-07-16T04:50:44;7.38;;;3.38;;
38089;SDS011;23904;52.322;10.232;2023-07-16T04:53:09;5.50;;;2.55;;
38089;SDS011;23904;52.322;10.232;2023-07-16T04:55:38;6.72;;;3.35;;
38089;SDS011;23904;52.322;10.232;2023-07-16T04:58:05;9.05;;;2.65;;
38089;SDS011;23904;52.322;10.232;2023-07-16T05:00:31;4.65;;;2.65;;
38089;SDS011;23904;52.322;10.232;2023-07-16T05:02:58;5.20;;;2.67;;
38089;SDS011;23904;52.322;10.232;2023-07-16T05:05:23;6.35;;;2.83;;
38089;SDS011;23904;52.322;10.232;2023-07-16T05:07:49;5.10;;;2.55;;
38089;SDS011;23904;52.322;10.232;2023-07-16T05:10:15;4.15;;;2.28;;
38089;SDS011;23904;52.322;10.232;2023-07-16T05:12:40;7.80;;;2.53;;
38089;SDS011;23904;52.322;10.232;2023-07-16T05:15:06;7.40;;;2.65;;
38089;SDS011;23904;52.322;10.232;2023-07-16T05:17:33;5.10;;;2.88;;
38089;SDS011;23904;52.322;10.232;2023-07-16T05:19:58;9.73;;;3.00;;
38089;SDS011;23904;52.322;10.232;2023-07-16T05:22:24;10.57;;;2.83;;
38089;SDS011;23904;52.322;10.232;2023-07-16T05:24:49;7.15;;;2.78;;
38089;SDS011;23904;52.322;10.232;2023-07-16T05:27:15;5.65;;;2.53;;
38089;SDS011;23904;52.322;10.232;2023-07-16T05:29:41;5.65;;;2.35;;
38089;SDS011;23904;52.322;10.232;2023-07-16T05:32:07;6.50;;;2.75;;
38089;SDS011;23904;52.322;10.232;2023-07-16T05:34:33;5.82;;;2.30;;
38089;SDS011;23904;52.322;10.232;2023-07-16T05:36:58;7.15;;;2.63;;
38089;SDS011;23904;52.322;10.232;2023-07-16T05:39:24;8.00;;;2.67;;
38089;SDS011;23904;52.322;10.232;2023-07-16T05:41:50;5.32;;;2.15;;
38089;SDS011;23904;52.322;10.232;2023-07-16T05:44:16;8.90;;;2.95;;
38089;SDS011;23904;52.322;10.232;2023-07-16T05:46:41;4.72;;;2.38;;
38089;SDS011;23904;52.322;10.232;2023-07-16T05:49:07;5.72;;;2.40;;
38089;SDS011;23904;52.322;10.232;2023-07-16T05:51:32;6.55;;;2.40;;
38089;SDS011;23904;52.322;10.232;2023-07-16T05:53:58;8.65;;;2.53;;
38089;SDS011;23904;52.322;10.232;2023-07-16T05:56:23;4.43;;;2.35;;
38089;SDS011;23904;52.322;10.232;2023-07-16T05:58:49;6.40;;;2.03;;
38089;SDS011;23904;52.322;10.232;2023-07-16T06:01:15;9.10;;;2.50;;
38089;SDS011;23904;52.322;10.232;2023-07-16T06:03:40;7.07;;;2.83;;
38089;SDS011;23904;52.322;10.232;2023-07-16T06:06:08;5.38;;;2.50;;
38089;SDS011;23904;52.322;10.232;2023-07-16T06:08:34;9.10;;;2.38;;
38089;SDS011;23904;52.322;10.232;2023-07-16T06:11:00;6.18;;;2.63;;
38089;SDS011;23904;52.322;10.232;2023-07-16T06:13:25;6.85;;;3.08;;
38089;SDS011;23904;52.322;10.232;2023-07-16T06:15:51;7.68;;;2.53;;
38089;SDS011;23904;52.322;10.232;2023-07-16T06:18:17;6.22;;;2.35;;
38089;SDS011;23904;52.322;10.232;2023-07-16T06:20:43;7.20;;;2.65;;
38089;SDS011;23904;52.322;10.232;2023-07-16T06:23:10;5.35;;;3.58;;
38089;SDS011;23904;52.322;10.232;2023-07-16T06:25:37;6.57;;;2.70;;
38089;SDS011;23904;52.322;10.232;2023-07-16T06:28:03;7.80;;;3.08;;
38089;SDS011;23904;52.322;10.232;2023-07-16T06:30:29;6.22;;;3.33;;
38089;SDS011;23904;52.322;10.232;2023-07-16T06:32:57;8.43;;;3.03;;
38089;SDS011;23904;52.322;10.232;2023-07-16T06:35:22;7.57;;;2.95;;
38089;SDS011;23904;52.322;10.232;2023-07-16T06:37:48;5.85;;;2.75;;
38089;SDS011;23904;52.322;10.232;2023-07-16T06:40:13;6.05;;;3.30;;
38089;SDS011;23904;52.322;10.232;2023-07-16T06:42:39;8.45;;;2.88;;
38089;SDS011;23904;52.322;10.232;2023-07-16T06:45:05;8.98;;;3.53;;
38089;SDS011;23904;52.322;10.232;2023-07-16T06:47:31;8.15;;;3.40;;
38089;SDS011;23904;52.322;10.232;2023-07-16T06:49:57;8.75;;;3.63;;
38089;SDS011;23904;52.322;10.232;2023-07-16T06:52:23;7.00;;;3.53;;
38089;SDS011;23904;52.322;10.232;2023-07-16T06:54:52;5.57;;;3.10;;
38089;SDS011;23904;52.322;10.232;2023-07-16T06:57:24;5.25;;;2.85;;
38089;SDS011;23904;52.322;10.232;2023-07-16T06:59:50;6.88;;;3.00;;
38089;SDS011;23904;52.322;10.232;2023-07-16T07:02:16;5.07;;;2.92;;
38089;SDS011;23904;52.322;10.232;2023-07-16T07:04:42;5.65;;;3.15;;
38089;SDS011;23904;52.322;10.232;2023-07-16T07:07:08;9.70;;;3.80;;
38089;SDS011;23904;52.322;10.232;2023-07-16T07:09:34;5.25;;;2.72;;
38089;SDS011;23904;52.322;10.232;2023-07-16T07:11:59;6.53;;;3.17;;
38089;SDS011;23904;52.322;10.232;2023-07-16T07:14:26;5.05;;;2.30;;
38089;SDS011;23904;52.322;10.232;2023-07-16T07:16:51;5.32;;;2.67;;
38089;SDS011;23904;52.322;10.232;2023-07-16T07:19:17;6.85;;;2.50;;
38089;SDS011;23904;52.322;10.232;2023-07-16T07:21:42;10.00;;;3.25;;
38089;SDS011;23904;52.322;10.232;2023-07-16T07:24:08;5.35;;;2.40;;
38089;SDS011;23904;52.322;10.232;2023-07-16T07:26:33;5.85;;;2.38;;
38089;SDS011;23904;52.322;10.232;2023-07-16T07:28:59;3.10;;;1.98;;
38089;SDS011;23904;52.322;10.232;2023-07-16T07:31:25;8.27;;;2.40;;
38089;SDS011;23904;52.322;10.232;2023-07-16T07:33:50;10.02;;;2.25;;
38089;SDS011;23904;52.322;10.232;2023-07-16T07:36:18;5.35;;;2.42;;
38089;SDS011;23904;52.322;10.232;2023-07-16T07:38:44;3.38;;;2.03;;
38089;SDS011;23904;52.322;10.232;2023-07-16T07:41:10;8.07;;;2.38;;
38089;SDS011;23904;52.322;10.232;2023-07-16T07:43:36;9.18;;;2.45;;
38089;SDS011;23904;52.322;10.232;2023-07-16T07:46:01;7.03;;;2.35;;
38089;SDS011;23904;52.322;10.232;2023-07-16T07:48:27;5.70;;;2.38;;
38089;SDS011;23904;52.322;10.232;2023-07-16T07:50:53;8.68;;;2.08;;
38089;SDS011;23904;52.322;10.232;2023-07-16T07:53:18;6.90;;;2.10;;
38089;SDS011;23904;52.322;10.232;2023-07-16T07:55:44;5.72;;;2.00;;
38089;SDS011;23904;52.322;10.232;2023-07-16T07:58:10;5.03;;;2.10;;
38089;SDS011;23904;52.322;10.232;2023-07-16T08:00:36;6.60;;;2.63;;
38089;SDS011;23904;52.322;10.232;2023-07-16T08:03:03;9.65;;;3.03;;
38089;SDS011;23904;52.322;10.232;2023-07-16T08:05:28;7.97;;;2.47;;
38089;SDS011;23904;52.322;10.232;2023-07-16T08:07:54;9.25;;;2.00;;
38089;SDS011;23904;52.322;10.232;2023-07-16T08:10:21;6.93;;;2.15;;
38089;SDS011;23904;52.322;10.232;2023-07-16T08:20:09;8.13;;;2.08;;
38089;SDS011;23904;52.322;10.232;2023-07-16T08:22:35;6.95;;;2.25;;
38089;SDS011;23904;52.322;10.232;2023-07-16T08:25:01;8.50;;;2.42;;
38089;SDS011;23904;52.322;10.232;2023-07-16T08:27:28;7.90;;;2.50;;
38089;SDS011;23904;52.322;10.232;2023-07-16T08:29:54;6.35;;;3.10;;
38089;SDS011;23904;52.322;10.232;2023-07-16T08:32:20;5.97;;;2.25;;
38089;SDS011;23904;52.322;10.232;2023-07-16T08:34:46;7.07;;;2.22;;
38089;SDS011;23904;52.322;10.232;2023-07-16T08:37:12;6.05;;;2.20;;
38089;SDS011;23904;52.322;10.232;2023-07-16T08:39:38;5.07;;;2.25;;
38089;SDS011;23904;52.322;10.232;2023-07-16T08:42:04;6.70;;;2.85;;
38089;SDS011;23904;52.322;10.232;2023-07-16T08:44:30;6.45;;;2.85;;
38089;SDS011;23904;52.322;10.232;2023-07-16T08:46:56;9.38;;;2.53;;
38089;SDS011;23904;52.322;10.232;2023-07-16T08:49:23;7.13;;;2.58;;
38089;SDS011;23904;52.322;10.232;2023-07-16T08:51:50;11.38;;;2.88;;
38089;SDS011;23904;52.322;10.232;2023-07-16T08:54:19;5.93;;;2.35;;
38089;SDS011;23904;52.322;10.232;2023-07-16T08:56:44;6.22;;;2.80;;
38089;SDS011;23904;52.322;10.232;2023-07-16T08:59:11;9.05;;;2.38;;
38089;SDS011;23904;52.322;10.232;2023-07-16T09:01:39;10.18;;;2.80;;
38089;SDS011;23904;52.322;10.232;2023-07-16T09:04:05;5.03;;;2.30;;
38089;SDS011;23904;52.322;10.232;2023-07-16T09:06:30;5.80;;;2.33;;
38089;SDS011;23904;52.322;10.232;2023-07-16T09:15:32;5.47;;;1.80;;
38089;SDS011;23904;52.322;10.232;2023-07-16T09:17:59;4.35;;;1.85;;
38089;SDS011;23904;52.322;10.232;2023-07-16T09:20:25;9.27;;;2.65;;
38089;SDS011;23904;52.322;10.232;2023-07-16T09:22:55;3.08;;;1.73;;
38089;SDS011;23904;52.322;10.232;2023-07-16T09:25:30;6.07;;;1.95;;
38089;SDS011;23904;52.322;10.232;2023-07-16T09:28:03;5.25;;;1.90;;
38089;SDS011;23904;52.322;10.232;2023-07-16T09:30:32;4.75;;;1.98;;
38089;SDS011;23904;52.322;10.232;2023-07-16T09:33:08;6.38;;;2.03;;
38089;SDS011;23904;52.322;10.232;2023-07-16T09:35:41;4.97;;;2.20;;
38089;SDS011;23904;52.322;10.232;2023-07-16T09:38:08;5.60;;;2.20;;
38089;SDS011;23904;52.322;10.232;2023-07-16T09:40:38;3.97;;;1.90;;
38089;SDS011;23904;52.322;10.232;2023-07-16T09:43:07;5.50;;;2.05;;
38089;SDS011;23904;52.322;10.232;2023-07-16T09:45:34;6.00;;;2.17;;
38089;SDS011;23904;52.322;10.232;2023-07-16T09:48:00;5.78;;;2.20;;
38089;SDS011;23904;52.322;10.232;2023-07-16T09:50:28;8.63;;;2.45;;
38089;SDS011;23904;52.322;10.232;2023-07-16T09:52:55;6.60;;;2.15;;
38089;SDS011;23904;52.322;10.232;2023-07-16T09:55:22;3.88;;;1.95;;
38089;SDS011;23904;52.322;10.232;2023-07-16T09:57:49;4.75;;;1.92;;
38089;SDS011;23904;52.322;10.232;2023-07-16T10:00:20;9.70;;;2.30;;
38089;SDS011;23904;52.322;10.232;2023-07-16T10:02:48;4.05;;;1.90;;
38089;SDS011;23904;52.322;10.232;2023-07-16T10:05:15;4.43;;;1.85;;
38089;SDS011;23904;52.322;10.232;2023-07-16T10:07:54;4.57;;;2.00;;
38089;SDS011;23904;52.322;10.232;2023-07-16T10:10:40;4.65;;;1.80;;
38089;SDS011;23904;52.322;10.232;2023-07-16T10:13:22;4.65;;;2.10;;
38089;SDS011;23904;52.322;10.232;2023-07-16T10:15:55;3.63;;;1.80;;
38089;SDS011;23904;52.322;10.232;2023-07-16T10:18:23;4.10;;;2.13;;
38089;SDS011;23904;52.322;10.232;2023-07-16T10:20:52;6.88;;;1.85;;
38089;SDS011;23904;52.322;10.232;2023-07-16T10:23:18;4.30;;;1.70;;
38089;SDS011;23904;52.322;10.232;2023-07-16T10:26:00;4.57;;;1.92;;
38089;SDS011;23904;52.322;10.232;2023-07-16T10:32:07;3.77;;;2.13;;
38089;SDS011;23904;52.322;10.232;2023-07-16T10:34:34;4.03;;;2.08;;
38089;SDS011;23904;52.322;10.232;2023-07-16T10:37:01;4.05;;;1.75;;
38089;SDS011;23904;52.322;10.232;2023-07-16T10:39:28;6.65;;;2.00;;
38089;SDS011;23904;52.322;10.232;2023-07-16T10:41:54;4.38;;;2.10;;
38089;SDS011;23904;52.322;10.232;2023-07-16T10:44:22;4.75;;;1.77;;
38089;SDS011;23904;52.322;10.232;2023-07-16T10:46:48;5.05;;;1.92;;
38089;SDS011;23904;52.322;10.232;2023-07-16T10:49:13;7.85;;;2.47;;
38089;SDS011;23904;52.322;10.232;2023-07-16T10:51:39;4.68;;;2.17;;
38089;SDS011;23904;52.322;10.232;2023-07-16T10:54:05;3.80;;;2.03;;
38089;SDS011;23904;52.322;10.232;2023-07-16T10:56:35;6.25;;;2.13;;
38089;SDS011;23904;52.322;10.232;2023-07-16T10:59:02;6.13;;;2.70;;
38089;SDS011;23904;52.322;10.232;2023-07-16T11:01:29;9.20;;;6.72;;
38089;SDS011;23904;52.322;10.232;2023-07-16T11:04:01;5.25;;;1.90;;
38089;SDS011;23904;52.322;10.232;2023-07-16T11:06:26;6.90;;;2.08;;
38089;SDS011;23904;52.322;10.232;2023-07-16T11:08:52;3.65;;;1.85;;
38089;SDS011;23904;52.322;10.232;2023-07-16T11:11:27;6.78;;;2.28;;
38089;SDS011;23904;52.322;10.232;2023-07-16T11:13:54;4.93;;;1.85;;
38089;SDS011;23904;52.322;10.232;2023-07-16T11:16:20;5.90;;;1.90;;
38089;SDS011;23904;52.322;10.232;2023-07-16T11:18:46;4.03;;;2.05;;
38089;SDS011;23904;52.322;10.232;2023-07-16T11:21:12;6.80;;;2.20;;
38089;SDS011;23904;52.322;10.232;2023-07-16T11:23:38;8.45;;;2.50;;
38089;SDS011;23904;52.322;10.232;2023-07-16T11:26:04;5.13;;;2.45;;
38089;SDS011;23904;52.322;10.232;2023-07-16T11:28:36;5.43;;;2.53;;
38089;SDS011;23904;52.322;10.232;2023-07-16T11:31:09;6.78;;;1.50;;
38089;SDS011;23904;52.322;10.232;2023-07-16T11:33:41;3.25;;;1.98;;
38089;SDS011;23904;52.322;10.232;2023-07-16T11:36:10;5.20;;;2.45;;
38089;SDS011;23904;52.322;10.232;2023-07-16T11:38:37;6.93;;;2.17;;
38089;SDS011;23904;52.322;10.232;2023-07-16T11:41:04;4.07;;;2.33;;
38089;SDS011;23904;52.322;10.232;2023-07-16T11:43:36;6.25;;;2.13;;
38089;SDS011;23904;52.322;10.232;2023-07-16T11:46:13;5.03;;;2.17;;
38089;SDS011;23904;52.322;10.232;2023-07-16T11:48:41;4.90;;;2.00;;
38089;SDS011;23904;52.322;10.232;2023-07-16T11:51:06;4.63;;;2.25;;
38089;SDS011;23904;52.322;10.232;2023-07-16T11:53:33;5.45;;;1.95;;
38089;SDS011;23904;52.322;10.232;2023-07-16T11:55:58;3.60;;;1.90;;
38089;SDS011;23904;52.322;10.232;2023-07-16T11:58:24;3.15;;;2.10;;
38089;SDS011;23904;52.322;10.232;2023-07-16T12:00:49;3.88;;;2.20;;
38089;SDS011;23904;52.322;10.232;2023-07-16T12:03:16;4.13;;;2.35;;
38089;SDS011;23904;52.322;10.232;2023-07-16T12:05:42;4.35;;;2.45;;
38089;SDS011;23904;52.322;10.232;2023-07-16T12:08:08;5.18;;;2.50;;
38089;SDS011;23904;52.322;10.232;2023-07-16T12:10:39;5.30;;;2.83;;
38089;SDS011;23904;52.322;10.232;2023-07-16T12:13:05;4.45;;;2.45;;
38089;SDS011;23904;52.322;10.232;2023-07-16T12:15:31;3.92;;;2.10;;
38089;SDS011;23904;52.322;10.232;2023-07-16T12:17:57;4.63;;;2.90;;
38089;SDS011;23904;52.322;10.232;2023-07-16T12:20:23;4.47;;;2.65;;
38089;SDS011;23904;52.322;10.232;2023-07-16T12:22:48;4.50;;;2.35;;
38089;SDS011;23904;52.322;10.232;2023-07-16T12:25:14;6.40;;;3.13;;
38089;SDS011;23904;52.322;10.232;2023-07-16T12:27:41;5.22;;;2.90;;
38089;SDS011;23904;52.322;10.232;2023-07-16T12:30:07;5.45;;;2.47;;
38089;SDS011;23904;52.322;10.232;2023-07-16T12:32:33;6.18;;;2.50;;
38089;SDS011;23904;52.322;10.232;2023-07-16T12:34:59;5.03;;;2.53;;
38089;SDS011;23904;52.322;10.232;2023-07-16T12:37:25;7.38;;;2.92;;
38089;SDS011;23904;52.322;10.232;2023-07-16T12:39:51;7.03;;;3.08;;
38089;SDS011;23904;52.322;10.232;2023-07-16T12:42:17;4.60;;;2.35;;
38089;SDS011;23904;52.322;10.232;2023-07-16T12:44:43;5.00;;;2.58;;
38089;SDS011;23904;52.322;10.232;2023-07-16T12:47:08;5.10;;;2.83;;
38089;SDS011;23904;52.322;10.232;2023-07-16T12:49:34;5.15;;;2.58;;
38089;SDS011;23904;52.322;10.232;2023-07-16T12:52:00;4.57;;;2.58;;
38089;SDS011;23904;52.322;10.232;2023-07-16T12:54:25;5.05;;;2.53;;
38089;SDS011;23904;52.322;10.232;2023-07-16T12:56:51;5.72;;;2.80;;
38089;SDS011;23904;52.322;10.232;2023-07-16T12:59:17;5.65;;;2.65;;
38089;SDS011;23904;52.322;10.232;2023-07-16T13:01:42;5.32;;;3.03;;
38089;SDS011;23904;52.322;10.232;2023-07-16T13:04:08;7.18;;;3.20;;
38089;SDS011;23904;52.322;10.232;2023-07-16T13:06:33;3.88;;;2.72;;
38089;SDS011;23904;52.322;10.232;2023-07-16T13:08:59;5.50;;;2.85;;
38089;SDS011;23904;52.322;10.232;2023-07-16T13:11:24;5.35;;;3.03;;
38089;SDS011;23904;52.322;10.232;2023-07-16T13:13:50;6.80;;;3.03;;
38089;SDS011;23904;52.322;10.232;2023-07-16T13:16:16;5.05;;;2.83;;
38089;SDS011;23904;52.322;10.232;2023-07-16T13:18:42;6.78;;;3.75;;
38089;SDS011;23904;52.322;10.232;2023-07-16T13:21:07;5.80;;;2.97;;
38089;SDS011;23904;52.322;10.232;2023-07-16T13:23:33;5.22;;;2.60;;
38089;SDS011;23904;52.322;10.232;2023-07-16T13:26:00;5.55;;;3.00;;
38089;SDS011;23904;52.322;10.232;2023-07-16T13:28:26;8.43;;;3.30;;
38089;SDS011;23904;52.322;10.232;2023-07-16T13:30:53;5.40;;;3.03;;
38089;SDS011;23904;52.322;10.232;2023-07-16T13:33:19;6.80;;;2.92;;
38089;SDS011;23904;52.322;10.232;2023-07-16T13:35:45;5.78;;;3.05;;
38089;SDS011;23904;52.322;10.232;2023-07-16T13:38:17;11.55;;;3.50;;
38089;SDS011;23904;52.322;10.232;2023-07-16T13:40:42;5.80;;;2.67;;
38089;SDS011;23904;52.322;10.232;2023-07-16T13:43:08;4.05;;;2.45;;
38089;SDS011;23904;52.322;10.232;2023-07-16T13:45:33;5.13;;;2.28;;
38089;SDS011;23904;52.322;10.232;2023-07-16T13:47:59;3.67;;;2.35;;
38089;SDS011;23904;52.322;10.232;2023-07-16T13:50:25;4.82;;;2.53;;
38089;SDS011;23904;52.322;10.232;2023-07-16T13:52:50;6.65;;;2.53;;
38089;SDS011;23904;52.322;10.232;2023-07-16T13:55:17;7.35;;;2.35;;
38089;SDS011;23904;52.322;10.232;2023-07-16T13:57:42;7.53;;;2.83;;
38089;SDS011;23904;52.322;10.232;2023-07-16T14:00:08;5.22;;;2.45;;
38089;SDS011;23904;52.322;10.232;2023-07-16T14:02:35;6.82;;;3.20;;
38089;SDS011;23904;52.322;10.232;2023-07-16T14:05:01;5.45;;;2.75;;
38089;SDS011;23904;52.322;10.232;2023-07-16T14:07:27;5.97;;;3.30;;
38089;SDS011;23904;52.322;10.232;2023-07-16T14:09:53;7.70;;;3.10;;
38089;SDS011;23904;52.322;10.232;2023-07-16T14:12:20;6.43;;;3.05;;
38089;SDS011;23904;52.322;10.232;2023-07-16T14:14:46;4.93;;;3.03;;
38089;SDS011;23904;52.322;10.232;2023-07-16T14:17:12;6.60;;;2.85;;
38089;SDS011;23904;52.322;10.232;2023-07-16T14:19:37;6.32;;;3.30;;
38089;SDS011;23904;52.322;10.232;2023-07-16T14:22:03;5.43;;;2.70;;
38089;SDS011;23904;52.322;10.232;2023-07-16T14:24:29;10.00;;;3.35;;
38089;SDS011;23904;52.322;10.232;2023-07-16T14:26:57;5.70;;;2.97;;
38089;SDS011;23904;52.322;10.232;2023-07-16T14:29:25;5.78;;;2.70;;
38089;SDS011;23904;52.322;10.232;2023-07-16T14:31:52;6.22;;;2.90;;
38089;SDS011;23904;52.322;10.232;2023-07-16T14:34:18;4.70;;;2.75;;
38089;SDS011;23904;52.322;10.232;2023-07-16T14:36:43;3.60;;;2.88;;
38089;SDS011;23904;52.322;10.232;2023-07-16T14:39:09;5.75;;;3.05;;
38089;SDS011;23904;52.322;10.232;2023-07-16T14:41:34;7.78;;;3.35;;
38089;SDS011;23904;52.322;10.232;2023-07-16T14:44:00;5.80;;;3.20;;
38089;SDS011;23904;52.322;10.232;2023-07-16T14:46:26;6.97;;;3.20;;
38089;SDS011;23904;52.322;10.232;2023-07-16T14:48:51;6.13;;;3.30;;
38089;SDS011;23904;52.322;10.232;2023-07-16T14:51:20;8.35;;;3.33;;
38089;SDS011;23904;52.322;10.232;2023-07-16T14:53:46;4.82;;;3.03;;